Time;durP1;ratioP1;P1;durP2;ratioP2;P2;SDS_P1;SDS_P2;PMS_P1;PMS_P2;Temp;Humidity;BMP_temperature;BMP_pressure;BME280_temperature;BME280_humidity;BME280_pressure;Samples;Min_cycle;Max_cycle;Signal;HPM_P1;HPM_P2
2022/07/01 00:00:23;;;;;;;0.20;0.20;;;16.70;99.90;;;;;;5009946;28;20777;-67
2022/07/01 00:02:50;;;;;;;0.20;0.20;;;16.70;99.90;;;;;;5002669;28;20442;-67
2022/07/01 00:05:17;;;;;;;0.20;0.20;;;16.70;99.90;;;;;;5010869;28;20471;-66
2022/07/01 00:07:43;;;;;;;0.17;0.17;;;16.60;99.90;;;;;;5005412;28;20509;-66
2022/07/01 00:10:10;;;;;;;0.20;0.20;;;16.60;99.90;;;;;;5009653;28;20467;-66
2022/07/01 00:12:37;;;;;;;0.17;0.17;;;16.50;99.90;;;;;;4984714;28;20455;-67
2022/07/01 00:15:07;;;;;;;0.20;0.20;;;16.50;99.90;;;;;;5012276;28;20432;-67
2022/07/01 00:17:34;;;;;;;0.20;0.20;;;16.40;99.90;;;;;;5001984;28;20430;-68
2022/07/01 00:20:03;;;;;;;0.20;0.20;;;16.40;99.90;;;;;;5010329;28;20432;-67
2022/07/01 00:22:30;;;;;;;0.10;0.10;;;16.20;99.90;;;;;;5002343;28;20502;-66
2022/07/01 00:24:57;;;;;;;0.10;0.10;;;15.90;99.90;;;;;;5011800;28;20428;-69
2022/07/01 00:27:24;;;;;;;0.10;0.10;;;15.50;99.90;;;;;;5007279;28;20468;-69
2022/07/01 00:29:51;;;;;;;0.15;0.15;;;15.10;99.90;;;;;;4992516;28;20432;-70
2022/07/01 00:32:17;;;;;;;0.40;0.10;;;14.90;99.90;;;;;;5012420;28;20528;-69
2022/07/01 00:34:44;;;;;;;0.10;0.10;;;14.70;99.90;;;;;;5007608;28;21069;-69
2022/07/01 00:37:11;;;;;;;0.10;0.10;;;14.50;99.90;;;;;;5001468;28;20444;-67
2022/07/01 00:39:38;;;;;;;0.10;0.10;;;14.40;99.90;;;;;;5017048;28;20444;-69
2022/07/01 00:42:06;;;;;;;0.10;0.10;;;14.30;99.90;;;;;;5004229;28;20439;-69
2022/07/01 00:44:33;;;;;;;0.10;0.10;;;14.30;99.90;;;;;;5005791;28;20440;-68
2022/07/01 00:47:03;;;;;;;0.00;0.00;;;14.20;99.90;;;;;;5005622;28;20465;-66
2022/07/01 00:49:31;;;;;;;0.10;0.10;;;14.20;99.90;;;;;;5009661;28;20922;-69
2022/07/01 00:51:58;;;;;;;0.00;0.00;;;14.10;99.90;;;;;;5011976;28;21177;-69
2022/07/01 00:54:26;;;;;;;0.00;0.00;;;14.10;99.90;;;;;;5007846;28;20427;-70
2022/07/01 00:56:53;;;;;;;0.10;0.10;;;14.00;99.90;;;;;;5011902;28;20448;-69
2022/07/01 00:59:20;;;;;;;0.10;0.10;;;14.00;99.90;;;;;;5011644;28;20525;-70
2022/07/01 01:01:47;;;;;;;0.00;0.00;;;14.00;99.90;;;;;;4993549;28;20430;-70
2022/07/01 01:04:14;;;;;;;0.10;0.10;;;14.00;99.90;;;;;;5010710;28;20515;-69
2022/07/01 01:06:41;;;;;;;0.10;0.10;;;14.00;99.90;;;;;;5026139;28;20945;-70
2022/07/01 01:09:08;;;;;;;0.00;0.00;;;14.10;99.90;;;;;;5011331;28;20930;-69
2022/07/01 01:11:35;;;;;;;0.03;0.03;;;14.10;99.90;;;;;;5012214;28;20436;-69
2022/07/01 01:14:02;;;;;;;0.00;0.00;;;14.10;99.90;;;;;;5024621;28;20437;-69
2022/07/01 01:16:29;;;;;;;0.40;0.10;;;14.00;99.90;;;;;;5025185;28;20428;-69
2022/07/01 01:18:56;;;;;;;0.00;0.00;;;14.00;99.90;;;;;;5000172;28;20430;-69
2022/07/01 01:21:24;;;;;;;0.00;0.00;;;14.00;99.90;;;;;;5011553;28;20985;-70
2022/07/01 01:23:51;;;;;;;0.00;0.00;;;14.00;99.90;;;;;;5009294;28;20441;-69
2022/07/01 01:26:20;;;;;;;0.00;0.00;;;14.00;99.90;;;;;;5008473;28;21242;-70
2022/07/01 01:28:48;;;;;;;0.10;0.10;;;14.10;99.90;;;;;;5007040;28;20525;-70
2022/07/01 01:31:15;;;;;;;0.10;0.10;;;14.10;99.90;;;;;;5010845;28;20440;-69
2022/07/01 01:33:45;;;;;;;0.03;0.03;;;14.00;99.90;;;;;;5010057;28;20917;-69
2022/07/01 01:36:12;;;;;;;0.00;0.00;;;14.00;99.90;;;;;;5007669;28;20440;-70
2022/07/01 01:38:39;;;;;;;0.00;0.00;;;14.00;99.90;;;;;;5020648;28;20515;-70
2022/07/01 01:41:09;;;;;;;0.10;0.10;;;13.90;99.90;;;;;;5009746;28;20994;-69
2022/07/01 01:43:36;;;;;;;0.00;0.00;;;13.90;99.90;;;;;;5010794;28;20978;-69
2022/07/01 01:46:03;;;;;;;0.00;0.00;;;14.00;99.90;;;;;;5009512;28;20940;-67
2022/07/01 01:48:31;;;;;;;0.00;0.00;;;13.90;99.90;;;;;;5005812;28;20487;-67
2022/07/01 01:50:58;;;;;;;0.10;0.10;;;13.90;99.90;;;;;;5010928;28;20425;-67
2022/07/01 01:53:25;;;;;;;0.00;0.00;;;13.80;99.90;;;;;;5009533;28;20511;-67
2022/07/01 01:55:53;;;;;;;0.10;0.10;;;13.80;99.90;;;;;;4995683;28;20853;-68
2022/07/01 01:58:20;;;;;;;0.10;0.10;;;13.80;99.90;;;;;;5015882;28;20542;-68
2022/07/01 02:00:47;;;;;;;0.00;0.00;;;13.80;99.90;;;;;;5009697;28;20526;-69
2022/07/01 02:03:17;;;;;;;0.00;0.00;;;13.80;99.90;;;;;;5007932;28;20482;-67
2022/07/01 02:05:44;;;;;;;0.10;0.10;;;13.90;99.90;;;;;;5003530;28;20432;-68
2022/07/01 02:08:13;;;;;;;0.00;0.00;;;13.90;99.90;;;;;;4997266;28;20442;-68
2022/07/01 02:10:40;;;;;;;0.00;0.00;;;13.90;99.90;;;;;;5023143;28;20441;-67
2022/07/01 02:13:09;;;;;;;0.10;0.10;;;13.80;99.90;;;;;;5015226;28;20447;-67
2022/07/01 02:15:36;;;;;;;0.10;0.10;;;13.80;99.90;;;;;;5010604;28;20432;-68
2022/07/01 02:18:02;;;;;;;0.10;0.10;;;13.80;99.90;;;;;;5005342;28;20431;-68
2022/07/01 02:20:29;;;;;;;0.50;0.03;;;13.80;99.90;;;;;;5013617;28;20433;-67
2022/07/01 02:22:56;;;;;;;0.00;0.00;;;13.80;99.90;;;;;;4999568;28;20426;-67
2022/07/01 02:25:23;;;;;;;0.00;0.00;;;13.90;99.90;;;;;;4991332;28;20471;-67
2022/07/01 02:27:49;;;;;;;0.00;0.00;;;13.90;99.90;;;;;;4999015;28;20445;-67
2022/07/01 02:30:16;;;;;;;0.00;0.00;;;13.90;99.90;;;;;;5010085;28;20463;-67
2022/07/01 02:32:43;;;;;;;0.20;0.20;;;13.90;99.90;;;;;;5002461;28;20463;-67
2022/07/01 02:35:10;;;;;;;0.00;0.00;;;14.00;99.90;;;;;;5008107;28;20432;-67
2022/07/01 02:37:37;;;;;;;0.00;0.00;;;14.00;99.90;;;;;;5001468;28;21058;-67
2022/07/01 02:40:05;;;;;;;0.10;0.10;;;14.00;99.90;;;;;;5008925;28;20432;-67
2022/07/01 02:42:35;;;;;;;0.00;0.00;;;14.00;99.90;;;;;;5007581;28;20436;-67
2022/07/01 02:45:03;;;;;;;0.00;0.00;;;14.00;99.90;;;;;;5001369;28;20439;-67
2022/07/01 02:47:34;;;;;;;0.00;0.00;;;14.00;99.90;;;;;;5008607;28;20446;-67
2022/07/01 02:50:09;;;;;;;0.00;0.00;;;14.00;99.90;;;;;;5009963;28;20458;-67
2022/07/01 02:52:38;;;;;;;0.00;0.00;;;14.00;99.90;;;;;;5006635;28;20515;-66
2022/07/01 02:55:08;;;;;;;0.10;0.10;;;14.00;99.90;;;;;;5007358;28;20499;-66
2022/07/01 02:57:35;;;;;;;0.00;0.00;;;14.00;99.90;;;;;;5008308;28;20515;-66
2022/07/01 03:00:05;;;;;;;0.10;0.10;;;14.00;99.90;;;;;;4997369;28;20521;-67
2022/07/01 03:02:33;;;;;;;0.00;0.00;;;14.00;99.90;;;;;;5015125;28;20434;-67
2022/07/01 03:05:00;;;;;;;0.00;0.00;;;14.10;99.90;;;;;;4999765;28;20435;-66
2022/07/01 03:07:27;;;;;;;0.10;0.10;;;14.00;99.90;;;;;;4997565;28;20457;-67
2022/07/01 03:09:55;;;;;;;0.00;0.00;;;14.00;99.90;;;;;;4990014;28;20440;-67
2022/07/01 03:12:25;;;;;;;0.10;0.10;;;13.90;99.90;;;;;;4995559;28;20435;-67
2022/07/01 03:14:53;;;;;;;0.08;0.08;;;13.90;99.90;;;;;;5002472;28;20529;-66
2022/07/01 03:17:19;;;;;;;0.10;0.10;;;13.80;99.90;;;;;;5004718;28;20440;-67
2022/07/01 03:19:46;;;;;;;0.00;0.00;;;13.80;99.90;;;;;;5007423;28;20439;-67
2022/07/01 03:22:13;;;;;;;0.05;0.05;;;13.80;99.90;;;;;;5004752;28;20440;-67
2022/07/01 03:24:40;;;;;;;0.10;0.10;;;13.70;99.90;;;;;;5007051;28;20424;-67
2022/07/01 03:27:07;;;;;;;0.10;0.10;;;13.70;99.90;;;;;;5009158;28;20437;-65
2022/07/01 03:29:34;;;;;;;0.00;0.00;;;13.70;99.90;;;;;;5010260;28;20447;-66
2022/07/01 03:32:01;;;;;;;0.10;0.10;;;13.70;99.90;;;;;;4999642;28;20450;-66
2022/07/01 03:34:28;;;;;;;0.05;0.05;;;13.70;99.90;;;;;;5006763;28;20443;-67
2022/07/01 03:36:55;;;;;;;0.00;0.00;;;13.70;99.90;;;;;;5000486;28;20976;-67
2022/07/01 03:39:22;;;;;;;0.10;0.10;;;13.70;99.90;;;;;;4988614;28;20432;-66
2022/07/01 03:41:49;;;;;;;0.05;0.05;;;13.70;99.90;;;;;;5000448;28;20451;-67
2022/07/01 03:44:16;;;;;;;0.00;0.00;;;13.70;99.90;;;;;;5007478;28;20429;-66
2022/07/01 03:46:45;;;;;;;0.10;0.10;;;13.80;99.90;;;;;;5008168;28;20443;-66
2022/07/01 03:49:12;;;;;;;0.10;0.10;;;13.80;99.90;;;;;;5008947;28;20900;-66
2022/07/01 03:51:38;;;;;;;0.00;0.00;;;13.80;99.90;;;;;;5008450;28;20436;-64
2022/07/01 03:56:53;;;;;;;0.00;0.00;;;13.80;99.90;;;;;;5007103;28;20449;-66
2022/07/01 03:59:19;;;;;;;0.00;0.00;;;13.80;99.90;;;;;;5004728;28;20442;-66
2022/07/01 04:01:46;;;;;;;0.00;0.00;;;13.80;99.90;;;;;;5007277;28;20451;-66
2022/07/01 04:04:13;;;;;;;0.10;0.10;;;13.90;99.90;;;;;;5005664;28;20432;-66
2022/07/01 04:06:44;;;;;;;0.10;0.10;;;13.90;99.90;;;;;;5009559;28;20440;-66
2022/07/01 04:09:12;;;;;;;0.10;0.10;;;13.90;99.90;;;;;;4997742;28;20928;-66
2022/07/01 04:11:42;;;;;;;0.10;0.10;;;13.90;99.90;;;;;;4984250;28;20460;-65
2022/07/01 04:14:10;;;;;;;0.10;0.10;;;13.90;99.90;;;;;;5005408;28;20433;-66
2022/07/01 04:16:37;;;;;;;0.05;0.05;;;13.90;99.90;;;;;;5019538;28;20511;-65
2022/07/01 04:19:05;;;;;;;0.00;0.00;;;13.90;99.90;;;;;;5007519;28;20424;-66
2022/07/01 04:24:17;;;;;;;0.10;0.10;;;13.90;99.90;;;;;;5011963;28;20430;-65
2022/07/01 04:26:44;;;;;;;0.10;0.10;;;13.90;99.90;;;;;;5009531;28;20428;-65
2022/07/01 04:29:14;;;;;;;0.08;0.08;;;13.90;99.90;;;;;;4996213;28;20509;-65
2022/07/01 04:31:41;;;;;;;0.00;0.00;;;13.90;99.90;;;;;;5012815;28;20515;-65
2022/07/01 04:34:09;;;;;;;0.10;0.10;;;14.00;99.90;;;;;;5010883;28;20519;-65
2022/07/01 04:36:36;;;;;;;0.10;0.10;;;14.00;99.90;;;;;;5016487;28;20478;-65
2022/07/01 04:39:05;;;;;;;0.10;0.10;;;14.10;99.90;;;;;;4998891;28;20517;-65
2022/07/01 04:44:18;;;;;;;0.10;0.10;;;14.20;99.90;;;;;;5002422;28;20419;-65
2022/07/01 04:46:45;;;;;;;0.10;0.10;;;14.20;99.90;;;;;;5011832;28;20512;-65
2022/07/01 04:49:12;;;;;;;0.10;0.10;;;14.20;99.90;;;;;;5010241;28;20425;-65
2022/07/01 04:51:39;;;;;;;0.10;0.10;;;14.20;99.90;;;;;;5008226;28;20428;-65
2022/07/01 04:54:06;;;;;;;0.10;0.10;;;14.30;99.90;;;;;;5002594;28;20533;-65
2022/07/01 04:56:34;;;;;;;0.10;0.10;;;14.30;99.90;;;;;;5026453;28;20440;-65
2022/07/01 04:59:07;;;;;;;0.10;0.10;;;14.30;99.90;;;;;;5004802;28;20432;-65
2022/07/01 05:01:34;;;;;;;0.10;0.10;;;14.40;99.90;;;;;;4999927;28;20465;-66
2022/07/01 05:04:01;;;;;;;0.10;0.10;;;14.30;99.90;;;;;;4998473;28;20434;-66
2022/07/01 05:06:28;;;;;;;0.10;0.10;;;14.30;99.90;;;;;;5003889;28;20467;-66
2022/07/01 05:08:55;;;;;;;0.10;0.10;;;14.30;99.90;;;;;;5004481;28;20966;-66
2022/07/01 05:11:22;;;;;;;0.10;0.10;;;14.30;99.90;;;;;;4992778;28;20473;-66
2022/07/01 05:13:49;;;;;;;0.10;0.10;;;14.30;99.90;;;;;;4992089;28;20442;-66
2022/07/01 05:16:16;;;;;;;0.13;0.13;;;14.40;99.90;;;;;;5007181;28;20516;-66
2022/07/01 05:24:13;;;;;;;0.20;0.20;;;14.70;99.90;;;;;;5007313;28;20990;-66
2022/07/01 05:26:40;;;;;;;0.10;0.10;;;15.00;99.90;;;;;;5007420;28;20436;-66
2022/07/01 05:29:07;;;;;;;0.10;0.10;;;15.20;99.90;;;;;;4994729;28;20966;-66
2022/07/01 05:31:34;;;;;;;0.10;0.10;;;15.40;99.90;;;;;;4995822;28;20438;-66
2022/07/01 05:34:00;;;;;;;0.10;0.10;;;15.70;99.90;;;;;;5001890;28;20818;-67
2022/07/01 05:36:30;;;;;;;0.10;0.10;;;15.90;99.90;;;;;;5008796;28;20503;-66
2022/07/01 05:38:57;;;;;;;0.20;0.20;;;16.30;99.90;;;;;;5009117;28;20515;-66
2022/07/01 05:41:24;;;;;;;0.30;0.30;;;16.70;99.90;;;;;;5006591;28;20432;-66
2022/07/01 05:43:51;;;;;;;0.20;0.20;;;16.80;99.90;;;;;;5010295;28;21095;-66
2022/07/01 05:46:21;;;;;;;0.20;0.20;;;16.90;99.90;;;;;;5009350;28;21106;-66
2022/07/01 05:48:48;;;;;;;0.20;0.20;;;17.00;99.90;;;;;;5009583;28;20475;-66
2022/07/01 05:51:17;;;;;;;0.20;0.20;;;17.00;99.90;;;;;;5008534;28;20436;-67
2022/07/01 05:53:47;;;;;;;0.20;0.20;;;17.20;99.90;;;;;;5010672;28;20858;-66
2022/07/01 05:56:15;;;;;;;0.30;0.30;;;17.70;99.90;;;;;;5009322;28;21114;-67
2022/07/01 05:58:42;;;;;;;0.20;0.20;;;18.30;99.90;;;;;;5007411;28;20435;-66
2022/07/01 06:01:09;;;;;;;0.50;0.50;;;18.30;99.90;;;;;;4981466;28;20524;-66
2022/07/01 06:03:36;;;;;;;1.40;0.20;;;18.10;99.90;;;;;;5001069;28;20503;-66
2022/07/01 06:06:06;;;;;;;0.30;0.30;;;17.90;99.90;;;;;;5008811;28;20437;-65
2022/07/01 06:08:33;;;;;;;0.20;0.20;;;17.60;99.90;;;;;;5021547;28;20431;-66
2022/07/01 06:11:01;;;;;;;0.20;0.20;;;17.40;99.90;;;;;;4999526;28;20442;-65
2022/07/01 06:13:29;;;;;;;0.30;0.30;;;17.40;99.90;;;;;;5022190;28;20444;-66
2022/07/01 06:15:58;;;;;;;0.20;0.20;;;17.80;99.90;;;;;;5003504;28;20447;-66
2022/07/01 06:18:26;;;;;;;0.20;0.20;;;18.00;99.90;;;;;;5001961;28;20948;-65
2022/07/01 06:20:53;;;;;;;0.20;0.20;;;18.20;99.90;;;;;;5005365;28;20954;-66
2022/07/01 06:23:20;;;;;;;0.40;0.20;;;18.30;99.90;;;;;;5008361;28;20464;-66
2022/07/01 06:25:47;;;;;;;0.30;0.30;;;18.30;99.90;;;;;;5005485;28;20424;-66
2022/07/01 06:28:13;;;;;;;0.28;0.28;;;18.40;99.90;;;;;;5016911;28;20494;-66
2022/07/01 06:30:43;;;;;;;0.20;0.20;;;18.60;99.90;;;;;;5001530;28;20436;-69
2022/07/01 06:33:11;;;;;;;0.15;0.15;;;18.80;99.90;;;;;;5022901;28;20449;-66
2022/07/01 06:35:38;;;;;;;0.30;0.30;;;19.00;99.90;;;;;;5005310;28;20431;-66
2022/07/01 06:38:05;;;;;;;0.30;0.30;;;18.90;99.90;;;;;;5030778;28;20427;-66
2022/07/01 06:40:32;;;;;;;0.30;0.30;;;18.70;99.90;;;;;;5006512;28;21183;-66
2022/07/01 06:42:59;;;;;;;0.20;0.20;;;18.60;99.90;;;;;;5003207;28;20442;-65
2022/07/01 06:45:26;;;;;;;0.28;0.28;;;18.60;99.90;;;;;;5007565;28;20435;-66
2022/07/01 06:47:55;;;;;;;0.30;0.30;;;18.60;99.90;;;;;;5002684;28;20516;-66
2022/07/01 06:50:22;;;;;;;0.20;0.20;;;18.50;99.90;;;;;;5008331;28;20521;-66
2022/07/01 06:52:49;;;;;;;0.30;0.30;;;18.40;99.90;;;;;;5015550;28;20441;-66
2022/07/01 06:55:22;;;;;;;0.30;0.30;;;18.40;99.90;;;;;;5009336;28;20914;-66
2022/07/01 06:57:48;;;;;;;0.20;0.20;;;18.20;99.90;;;;;;5006199;28;20976;-66
2022/07/01 07:00:17;;;;;;;0.30;0.30;;;18.20;99.90;;;;;;5013430;28;20437;-66
2022/07/01 07:02:44;;;;;;;0.30;0.30;;;18.10;99.90;;;;;;4991849;28;20436;-66
2022/07/01 07:05:11;;;;;;;0.25;0.25;;;18.00;99.90;;;;;;5006359;28;20433;-66
2022/07/01 07:07:41;;;;;;;0.20;0.20;;;17.90;99.90;;;;;;5001608;28;20445;-66
2022/07/01 07:10:08;;;;;;;0.30;0.30;;;17.80;99.90;;;;;;5010554;28;20486;-66
2022/07/01 07:12:35;;;;;;;0.28;0.28;;;17.70;99.90;;;;;;4999104;28;20525;-66
2022/07/01 07:15:02;;;;;;;0.30;0.30;;;17.50;99.90;;;;;;5011115;28;20769;-66
2022/07/01 07:17:29;;;;;;;0.30;0.30;;;17.30;99.90;;;;;;5005756;28;21005;-68
2022/07/01 07:19:56;;;;;;;0.32;0.32;;;17.00;99.90;;;;;;5013542;28;20441;-68
2022/07/01 07:22:23;;;;;;;0.32;0.32;;;16.80;99.90;;;;;;5008472;28;20425;-67
2022/07/01 07:24:50;;;;;;;0.32;0.32;;;16.60;99.90;;;;;;5013122;28;20455;-66
2022/07/01 07:27:17;;;;;;;0.30;0.30;;;16.50;99.90;;;;;;5014755;28;20516;-66
2022/07/01 07:29:43;;;;;;;0.30;0.30;;;16.50;99.90;;;;;;5005157;28;20425;-66
2022/07/01 07:32:10;;;;;;;0.40;0.40;;;16.60;99.90;;;;;;5018090;28;20876;-66
2022/07/01 07:34:37;;;;;;;0.30;0.30;;;16.60;99.90;;;;;;5013639;28;20453;-66
2022/07/01 07:37:04;;;;;;;0.30;0.30;;;16.70;99.90;;;;;;5000014;28;20493;-66
2022/07/01 07:39:32;;;;;;;0.30;0.30;;;16.80;99.90;;;;;;5004460;28;20436;-66
2022/07/01 07:41:59;;;;;;;0.30;0.30;;;16.90;99.90;;;;;;5000991;28;20428;-66
2022/07/01 07:44:26;;;;;;;0.22;0.22;;;16.80;99.90;;;;;;5006163;28;20504;-66
2022/07/01 07:46:53;;;;;;;0.20;0.20;;;16.80;99.90;;;;;;5006749;28;20451;-66
2022/07/01 07:49:20;;;;;;;0.30;0.30;;;16.90;99.90;;;;;;5001289;28;20439;-66
2022/07/01 07:51:46;;;;;;;0.30;0.30;;;17.00;99.90;;;;;;5016576;28;20499;-65
2022/07/01 07:54:13;;;;;;;0.40;0.40;;;17.00;99.90;;;;;;4999095;28;20501;-66
2022/07/01 07:56:40;;;;;;;0.40;0.40;;;17.00;99.90;;;;;;5014486;28;20477;-66
2022/07/01 07:59:11;;;;;;;0.30;0.30;;;16.80;99.90;;;;;;5004609;28;20487;-66
2022/07/01 08:01:38;;;;;;;0.35;0.35;;;16.70;99.90;;;;;;5019001;28;20428;-66
2022/07/01 08:04:05;;;;;;;0.40;0.40;;;16.50;99.90;;;;;;5005224;28;20437;-65
2022/07/01 08:06:31;;;;;;;0.30;0.30;;;16.40;99.90;;;;;;4982366;28;20526;-66
2022/07/01 08:08:58;;;;;;;0.20;0.20;;;16.30;99.90;;;;;;5010476;28;20524;-65
2022/07/01 08:11:25;;;;;;;0.22;0.22;;;16.20;99.90;;;;;;5007300;28;20587;-66
2022/07/01 08:13:52;;;;;;;0.30;0.30;;;16.10;99.90;;;;;;5013173;28;20472;-66
2022/07/01 08:16:19;;;;;;;0.30;0.30;;;16.00;99.90;;;;;;5007996;28;20942;-66
2022/07/01 08:18:46;;;;;;;0.30;0.30;;;16.00;99.90;;;;;;5010530;28;20534;-66
2022/07/01 08:21:13;;;;;;;0.20;0.20;;;16.00;99.90;;;;;;5011194;28;20518;-66
2022/07/01 08:23:39;;;;;;;0.30;0.22;;;16.10;99.90;;;;;;5009307;28;20531;-66
2022/07/01 08:26:06;;;;;;;0.50;0.50;;;16.20;99.90;;;;;;5009265;28;20429;-65
2022/07/01 08:28:33;;;;;;;0.20;0.20;;;16.30;99.90;;;;;;5010284;28;20506;-65
2022/07/01 08:31:00;;;;;;;0.20;0.20;;;16.40;99.90;;;;;;5008015;28;20918;-65
2022/07/01 08:33:27;;;;;;;0.20;0.20;;;16.60;99.90;;;;;;5009937;28;20438;-65
2022/07/01 08:35:54;;;;;;;0.20;0.20;;;16.70;99.90;;;;;;5007810;28;20540;-65
2022/07/01 08:38:24;;;;;;;0.28;0.28;;;16.80;99.90;;;;;;5017166;28;20796;-66
2022/07/01 08:40:50;;;;;;;0.20;0.20;;;17.00;99.90;;;;;;5012403;28;20452;-66
2022/07/01 08:43:23;;;;;;;0.40;0.40;;;17.30;99.90;;;;;;5009735;28;20434;-65
2022/07/01 08:45:51;;;;;;;0.32;0.32;;;17.50;99.90;;;;;;5012149;28;20441;-65
2022/07/01 08:48:24;;;;;;;0.20;0.20;;;17.80;99.90;;;;;;5010937;28;20482;-65
2022/07/01 08:50:50;;;;;;;0.30;0.30;;;18.00;99.90;;;;;;5011011;28;20440;-65
2022/07/01 08:53:17;;;;;;;0.30;0.30;;;18.30;99.90;;;;;;5009183;28;20440;-64
2022/07/01 08:58:30;;;;;;;0.40;0.40;;;18.80;99.90;;;;;;5009321;28;20438;-75
2022/07/01 09:01:23;;;;;;;0.50;0.50;;;19.00;99.90;;;;;;5011814;28;20513;-75
2022/07/01 09:03:56;;;;;;;0.30;0.30;;;19.10;99.90;;;;;;5011628;28;20440;-76
2022/07/01 09:06:26;;;;;;;0.20;0.20;;;19.10;99.90;;;;;;4999069;28;20519;-75
2022/07/01 09:08:53;;;;;;;0.28;0.28;;;18.90;99.90;;;;;;5014317;28;20523;-78
2022/07/01 09:11:24;;;;;;;0.25;0.25;;;18.80;99.90;;;;;;5011824;28;20507;-75
2022/07/01 09:14:08;;;;;;;0.20;0.20;;;18.70;99.90;;;;;;5001780;28;20482;-77
2022/07/01 09:16:46;;;;;;;0.38;0.38;;;18.30;99.90;;;;;;5013232;28;20464;-78
2022/07/01 09:19:14;;;;;;;0.38;0.38;;;18.10;99.90;;;;;;5011458;28;20467;-78
2022/07/01 09:21:42;;;;;;;1.25;0.28;;;18.00;99.90;;;;;;5011723;28;20437;-78
2022/07/01 09:24:30;;;;;;;0.50;0.25;;;17.90;99.90;;;;;;5011906;28;20468;-78
2022/07/01 09:27:16;;;;;;;0.40;0.40;;;17.80;99.90;;;;;;4993666;28;20521;-75
2022/07/01 09:29:45;;;;;;;0.80;0.40;;;17.60;99.90;;;;;;5011439;28;20440;-76
2022/07/01 09:32:17;;;;;;;0.30;0.30;;;17.60;99.90;;;;;;5010901;28;20463;-77
2022/07/01 09:34:47;;;;;;;0.30;0.30;;;17.70;99.90;;;;;;5010412;28;20438;-74
2022/07/01 09:37:16;;;;;;;0.30;0.30;;;17.90;99.90;;;;;;5012774;28;20432;-73
2022/07/01 09:39:47;;;;;;;0.35;0.35;;;18.30;99.90;;;;;;5017215;28;20457;-75
2022/07/01 09:42:17;;;;;;;0.30;0.30;;;18.80;99.90;;;;;;5028704;28;20818;-75
2022/07/01 09:44:58;;;;;;;0.40;0.40;;;19.20;99.90;;;;;;5009435;28;20425;-74
2022/07/01 09:47:31;;;;;;;0.40;0.40;;;19.90;99.90;;;;;;5009998;28;20519;-76
2022/07/01 09:49:59;;;;;;;0.30;0.30;;;20.70;99.90;;;;;;5020410;28;20442;-75
2022/07/01 09:52:26;;;;;;;0.30;0.30;;;21.60;99.90;;;;;;5010081;28;20436;-70
2022/07/01 09:55:02;;;;;;;0.30;0.30;;;22.30;99.90;;;;;;5020129;28;20762;-75
2022/07/01 09:57:29;;;;;;;0.30;0.30;;;23.00;99.90;;;;;;5014038;28;20464;-75
2022/07/01 09:59:55;;;;;;;0.50;0.50;;;22.60;99.90;;;;;;5007667;28;20982;-74
2022/07/01 10:02:23;;;;;;;0.40;0.40;;;22.40;99.90;;;;;;5006166;28;20440;-73
2022/07/01 10:05:06;;;;;;;0.30;0.30;;;22.70;99.90;;;;;;5002747;28;20468;-70
2022/07/01 10:07:55;;;;;;;0.20;0.20;;;23.40;99.90;;;;;;5008131;28;20436;-72
2022/07/01 10:10:49;;;;;;;0.30;0.30;;;22.70;99.90;;;;;;5010496;28;20487;-72
2022/07/01 10:13:21;;;;;;;0.30;0.30;;;22.20;99.90;;;;;;5008804;28;20441;-74
2022/07/01 10:15:50;;;;;;;0.20;0.20;;;22.50;99.90;;;;;;5012458;28;20456;-75
2022/07/01 10:18:22;;;;;;;0.30;0.30;;;23.20;99.90;;;;;;5017430;28;20485;-73
2022/07/01 10:20:50;;;;;;;0.30;0.30;;;23.30;99.90;;;;;;5010608;28;20471;-73
2022/07/01 10:23:28;;;;;;;0.70;0.30;;;23.20;99.90;;;;;;5014751;28;20515;-75
2022/07/01 10:26:05;;;;;;;0.20;0.20;;;23.40;99.90;;;;;;5018559;28;20432;-74
2022/07/01 10:28:45;;;;;;;0.30;0.30;;;24.00;99.90;;;;;;5020203;28;20497;-74
2022/07/01 10:31:17;;;;;;;0.25;0.25;;;24.30;99.90;;;;;;5013457;28;20525;-74
2022/07/01 10:33:53;;;;;;;0.20;0.20;;;24.60;99.90;;;;;;5013996;28;20887;-74
2022/07/01 10:36:21;;;;;;;0.20;0.20;;;24.60;99.90;;;;;;5001218;28;21053;-72
2022/07/01 10:39:00;;;;;;;0.15;0.15;;;24.50;99.90;;;;;;5003803;28;20954;-72
2022/07/01 10:41:32;;;;;;;0.22;0.22;;;24.80;99.90;;;;;;5008215;28;20432;-74
2022/07/01 10:44:03;;;;;;;0.35;0.35;;;24.90;99.90;;;;;;5023772;28;20496;-72
2022/07/01 10:46:49;;;;;;;0.27;0.27;;;25.30;99.90;;;;;;5016509;28;20513;-73
2022/07/01 10:49:40;;;;;;;0.30;0.30;;;25.90;99.90;;;;;;5020842;28;20530;-73
2022/07/01 10:52:17;;;;;;;0.28;0.28;;;25.70;99.90;;;;;;5020353;28;20905;-73
2022/07/01 10:54:53;;;;;;;0.40;0.40;;;25.50;99.90;;;;;;5017379;28;20451;-73
2022/07/01 10:57:24;;;;;;;0.30;0.30;;;25.30;99.90;;;;;;5022311;28;20836;-74
2022/07/01 10:59:52;;;;;;;0.38;0.38;;;24.90;99.90;;;;;;5017562;28;20527;-74
2022/07/01 11:02:23;;;;;;;0.50;0.40;;;24.40;99.90;;;;;;5022134;28;20427;-72
2022/07/01 11:04:53;;;;;;;1.00;0.43;;;24.00;99.90;;;;;;5020332;28;20432;-74
2022/07/01 11:07:26;;;;;;;0.70;0.70;;;23.30;99.90;;;;;;5022228;28;20848;-73
2022/07/01 11:09:52;;;;;;;0.80;0.77;;;23.70;99.90;;;;;;5025220;28;20425;-73
2022/07/01 11:12:29;;;;;;;0.88;0.88;;;24.30;99.90;;;;;;4990636;28;20521;-74
2022/07/01 11:14:58;;;;;;;0.60;0.60;;;23.90;99.90;;;;;;4991238;28;20495;-73
2022/07/01 11:17:28;;;;;;;0.85;0.85;;;23.50;99.90;;;;;;5022240;28;20432;-71
2022/07/01 11:20:02;;;;;;;0.50;0.50;;;23.70;99.90;;;;;;5023166;28;20432;-72
2022/07/01 11:22:31;;;;;;;0.50;0.50;;;23.60;99.90;;;;;;5017365;28;20431;-73
2022/07/01 11:25:12;;;;;;;0.47;0.40;;;24.40;99.90;;;;;;5009642;28;20434;-75
2022/07/01 11:27:40;;;;;;;1.27;1.27;;;25.30;99.90;;;;;;5002734;28;20431;-76
2022/07/01 11:30:11;;;;;;;1.73;1.50;;;26.10;99.90;;;;;;5024653;28;20530;-73
2022/07/01 11:32:44;;;;;;;1.60;1.50;;;26.50;99.90;;;;;;5023691;28;20431;-74
2022/07/01 11:40:51;;;;;;;0.90;0.70;;;24.50;99.90;;;;;;5011450;28;20436;-73
2022/07/01 11:43:24;;;;;;;0.90;0.90;;;25.50;99.90;;;;;;5017317;28;20469;-74
2022/07/01 11:45:53;;;;;;;0.63;0.63;;;25.00;99.90;;;;;;5024681;28;20442;-73
2022/07/01 11:48:30;;;;;;;0.57;0.57;;;24.70;99.90;;;;;;5018700;28;20797;-74
2022/07/01 11:50:58;;;;;;;0.60;0.60;;;24.00;99.90;;;;;;5029328;28;20513;-74
2022/07/01 11:53:26;;;;;;;0.65;0.60;;;23.30;99.90;;;;;;5008439;28;20424;-74
2022/07/01 11:55:53;;;;;;;0.50;0.50;;;22.40;99.90;;;;;;5001567;28;20509;-76
2022/07/01 11:58:20;;;;;;;0.50;0.50;;;21.80;99.90;;;;;;5006454;28;20428;-75
2022/07/01 12:00:46;;;;;;;0.70;0.47;;;21.70;99.90;;;;;;5018289;28;20427;-75
2022/07/01 12:03:30;;;;;;;0.30;0.30;;;21.90;99.90;;;;;;5008606;28;20810;-72
2022/07/01 12:05:58;;;;;;;0.30;0.30;;;21.80;99.90;;;;;;5026080;28;20444;-74
2022/07/01 12:08:25;;;;;;;0.40;0.40;;;22.20;99.90;;;;;;5007321;28;20959;-76
2022/07/01 12:10:52;;;;;;;0.35;0.35;;;22.40;99.90;;;;;;5011574;28;20431;-75
2022/07/01 12:13:26;;;;;;;0.30;0.30;;;22.30;99.90;;;;;;5023096;28;20522;-74
2022/07/01 12:15:53;;;;;;;0.50;0.50;;;22.30;99.90;;;;;;5022528;28;20950;-75
2022/07/01 12:18:20;;;;;;;0.40;0.40;;;22.30;99.90;;;;;;5008393;28;20512;-74
2022/07/01 12:21:05;;;;;;;0.30;0.30;;;22.40;99.90;;;;;;5012733;28;20437;-74
2022/07/01 12:23:36;;;;;;;0.30;0.30;;;22.30;99.90;;;;;;5017033;28;21180;-73
2022/07/01 12:26:04;;;;;;;0.25;0.25;;;22.10;99.90;;;;;;5013815;28;20438;-75
2022/07/01 12:28:53;;;;;;;0.20;0.20;;;21.90;99.90;;;;;;5012456;28;20433;-75
2022/07/01 12:31:22;;;;;;;0.30;0.30;;;22.10;99.90;;;;;;5000926;28;20433;-77
2022/07/01 12:33:51;;;;;;;0.40;0.30;;;22.60;99.90;;;;;;5010926;28;20455;-74
2022/07/01 12:36:19;;;;;;;0.20;0.20;;;23.10;99.90;;;;;;5005100;28;20439;-74
2022/07/01 12:38:46;;;;;;;0.22;0.20;;;23.70;99.90;;;;;;5021640;28;20428;-75
2022/07/01 12:41:39;;;;;;;0.40;0.40;;;23.90;99.90;;;;;;5012035;28;20428;-75
2022/07/01 12:44:20;;;;;;;0.30;0.30;;;24.40;99.90;;;;;;5012427;28;20436;-73
2022/07/01 12:46:47;;;;;;;0.30;0.30;;;24.70;99.90;;;;;;5011100;28;20915;-73
2022/07/01 12:49:24;;;;;;;0.20;0.20;;;25.10;99.90;;;;;;5012636;28;20516;-75
2022/07/01 12:51:54;;;;;;;0.32;0.32;;;24.70;99.90;;;;;;5012020;28;20967;-74
2022/07/01 12:54:38;;;;;;;0.30;0.30;;;24.30;99.90;;;;;;5011368;28;20512;-72
2022/07/01 12:57:05;;;;;;;0.30;0.30;;;24.10;99.90;;;;;;5026259;28;20642;-73
2022/07/01 12:59:32;;;;;;;0.20;0.20;;;23.30;99.90;;;;;;5013011;28;20512;-72
2022/07/01 13:02:01;;;;;;;0.30;0.30;;;22.90;99.90;;;;;;5012995;28;20992;-73
2022/07/01 13:04:32;;;;;;;0.25;0.25;;;22.00;99.90;;;;;;5012516;28;20867;-71
2022/07/01 13:06:58;;;;;;;0.30;0.30;;;21.50;99.90;;;;;;5011350;28;20871;-73
2022/07/01 13:09:25;;;;;;;0.90;0.30;;;21.10;99.90;;;;;;5011816;28;20892;-74
2022/07/01 13:11:52;;;;;;;0.22;0.22;;;20.80;99.90;;;;;;5001919;28;20437;-74
2022/07/01 13:14:21;;;;;;;0.30;0.30;;;20.60;99.90;;;;;;4992796;28;20438;-75
2022/07/01 13:16:48;;;;;;;0.28;0.28;;;20.50;99.90;;;;;;4993202;28;20827;-75
2022/07/01 13:19:15;;;;;;;0.30;0.30;;;20.60;99.90;;;;;;4991793;28;20442;-74